This is the latest recevied weather packets stored in our database for station/object SR5NLK-1. If no packets are shown the sender has not sent any weather packets the latest 10 day(s).
| Time | Temp. | Humidity | Pressure | Rain* | Wind** | Luminosity | Snow |
|---|---|---|---|---|---|---|---|
| 1777615509 | 27.22° C | 26% | 1024.8 hPa | 0 mm | - | - | - |
| 1777615209 | 26.67° C | 26% | 1021.7 hPa | 0 mm | - | - | - |
| 1777615029 | 26.11° C | 27% | 1043.8 hPa | 0 mm | - | - | - |
| 1777614909 | 25.56° C | 27% | 1018.6 hPa | 0 mm | - | - | - |
| 1777614609 | 25.56° C | 26% | 1027.9 hPa | 0 mm | - | - | - |
| 1777614309 | 25.56° C | 26% | 1021.7 hPa | 0 mm | - | - | - |
| 1777614009 | 25.56° C | 27% | 998 hPa | 0 mm | - | - | - |
| 1777613709 | 25.56° C | 27% | 1015.3 hPa | 0 mm | - | - | - |
| 1777613416 | 25° C | - | - | 0 mm | - | - | - |
| 1777613409 | 25° C | 28% | 1024.9 hPa | 0 mm | - | - | - |
| 1777613109 | 23.89° C | 28% | 1012.2 hPa | 0 mm | - | - | - |
| 1777613049 | 23.89° C | 28% | 1005.9 hPa | 0 mm | - | - | - |
| 1777612809 | 24.44° C | 28% | 1015.4 hPa | 0 mm | - | - | - |
| 1777612510 | 24.44° C | 28% | 1012.2 hPa | 0 mm | - | - | - |
| 1777612210 | 24.44° C | 29% | 982 hPa | 0 mm | - | - | - |
| 1777611910 | 24.44° C | 29% | 983 hPa | 0 mm | - | - | - |
| 1777611610 | 24.44° C | 30% | 1017.2 hPa | 0 mm | - | - | - |
| 1777611310 | 23.89° C | 31% | 1012.1 hPa | 0 mm | - | - | - |
| 1777611069 | 23.33° C | 32% | 1015.6 hPa | 0 mm | - | - | - |
| 1777611010 | 23.33° C | 33% | 1018.5 hPa | 0 mm | - | - | - |
| 1777610710 | 22.22° C | 34% | 1009.7 hPa | 0 mm | - | - | - |
| 1777610410 | 21.11° C | 36% | 1015.5 hPa | 0 mm | - | - | - |
| 1777610110 | 19.44° C | 39% | 993.7 hPa | 0 mm | - | - | - |
| 1777609810 | 17.78° C | 42% | 1000 hPa | 0 mm | - | - | - |
| 1777609510 | 15.56° C | 46% | 1015.4 hPa | 0 mm | - | - | - |
* Rain latest hour (hover to see other rain measurements)
** Current wind speed in m/s (hover to see current wind gust speed)